Time;durP1;ratioP1;P1;durP2;ratioP2;P2;SDS_P1;SDS_P2;PMS_P1;PMS_P2;Temp;Humidity;BMP_temperature;BMP_pressure;BME280_temperature;BME280_humidity;BME280_pressure;Samples;Min_cycle;Max_cycle;Signal;HPM_P1;HPM_P2
2022/03/04 00:00:52;;;;;;;15.98;10.43;;;;;;;;;;5074239;28;20233;-79
2022/03/04 00:03:20;;;;;;;13.88;10.30;;;;;;;;;;5094746;28;20643;-77
2022/03/04 00:05:48;;;;;;;16.83;10.85;;;;;;;;;;5080147;28;20209;-79
2022/03/04 00:08:15;;;;;;;15.98;11.20;;;;;;;;;;5068980;28;20190;-79
2022/03/04 00:10:42;;;;;;;18.65;11.38;;;;;;;;;;5057100;28;20759;-78
2022/03/04 00:13:09;;;;;;;14.38;9.60;;;;;;;;;;5078847;28;20198;-78
2022/03/04 00:15:37;;;;;;;14.30;10.48;;;;;;;;;;5071304;28;20232;-76
2022/03/04 00:18:04;;;;;;;14.40;9.90;;;;;;;;;;5067417;28;20230;-76
2022/03/04 00:20:33;;;;;;;16.67;11.55;;;;;;;;;;5069262;28;20286;-78
2022/03/04 00:23:00;;;;;;;16.88;11.18;;;;;;;;;;5059743;28;20476;-77
2022/03/04 00:25:27;;;;;;;13.52;10.23;;;;;;;;;;5073085;28;20233;-78
2022/03/04 00:27:54;;;;;;;16.75;11.02;;;;;;;;;;5076064;28;20190;-80
2022/03/04 00:30:21;;;;;;;13.43;10.45;;;;;;;;;;5072391;28;20213;-81
2022/03/04 00:32:49;;;;;;;16.30;10.52;;;;;;;;;;5068726;28;20198;-78
2022/03/04 00:35:18;;;;;;;16.85;11.15;;;;;;;;;;5071247;28;20660;-77
2022/03/04 00:37:46;;;;;;;16.42;11.50;;;;;;;;;;5071229;28;20194;-78
2022/03/04 00:40:15;;;;;;;15.60;10.93;;;;;;;;;;5071901;28;20198;-77
2022/03/04 00:42:42;;;;;;;14.40;10.18;;;;;;;;;;5071104;28;20194;-77
2022/03/04 00:45:10;;;;;;;14.27;10.13;;;;;;;;;;5053425;28;20214;-77
2022/03/04 00:47:37;;;;;;;17.27;10.60;;;;;;;;;;5054864;28;20203;-77
2022/03/04 00:50:05;;;;;;;23.23;12.38;;;;;;;;;;5067279;28;20197;-80
2022/03/04 00:52:32;;;;;;;18.65;11.63;;;;;;;;;;5064361;28;20289;-79
2022/03/04 00:55:01;;;;;;;16.15;10.43;;;;;;;;;;5057357;28;20219;-77
2022/03/04 00:57:28;;;;;;;14.95;10.70;;;;;;;;;;5071786;28;20193;-82
2022/03/04 00:59:55;;;;;;;21.05;10.82;;;;;;;;;;5067753;28;20514;-80
2022/03/04 01:02:22;;;;;;;17.73;11.48;;;;;;;;;;5070556;28;20198;-76
2022/03/04 01:04:49;;;;;;;19.45;11.98;;;;;;;;;;5055478;28;20229;-77
2022/03/04 01:07:17;;;;;;;20.10;12.27;;;;;;;;;;5069231;28;20201;-78
2022/03/04 01:09:44;;;;;;;17.70;11.30;;;;;;;;;;5069092;28;20202;-78
2022/03/04 01:12:13;;;;;;;15.55;10.23;;;;;;;;;;5070469;28;20222;-79
2022/03/04 01:14:40;;;;;;;15.85;11.20;;;;;;;;;;5064980;28;20233;-77
2022/03/04 01:17:07;;;;;;;16.48;10.70;;;;;;;;;;5062762;28;20521;-80
2022/03/04 01:19:34;;;;;;;20.00;11.15;;;;;;;;;;5058841;28;20570;-80
2022/03/04 01:22:01;;;;;;;16.88;10.75;;;;;;;;;;5049032;28;20198;-78
2022/03/04 01:24:29;;;;;;;18.45;11.95;;;;;;;;;;5064445;28;20234;-78
2022/03/04 01:26:56;;;;;;;15.73;11.00;;;;;;;;;;5065760;28;20202;-79
2022/03/04 01:29:24;;;;;;;17.63;11.45;;;;;;;;;;5060416;28;20199;-79
2022/03/04 01:31:51;;;;;;;18.60;11.13;;;;;;;;;;5057914;28;20192;-80
2022/03/04 01:34:19;;;;;;;18.77;11.48;;;;;;;;;;5067063;28;20571;-76
2022/03/04 01:36:46;;;;;;;16.38;10.98;;;;;;;;;;5049583;28;20209;-77
2022/03/04 01:39:13;;;;;;;17.92;12.50;;;;;;;;;;5066602;28;20205;-78
2022/03/04 01:41:40;;;;;;;14.23;11.05;;;;;;;;;;5066979;28;20208;-78
2022/03/04 01:44:07;;;;;;;15.05;9.98;;;;;;;;;;5063590;28;20224;-77
2022/03/04 01:46:36;;;;;;;16.13;11.25;;;;;;;;;;5060440;28;20209;-80
2022/03/04 01:49:03;;;;;;;17.60;10.88;;;;;;;;;;5070196;28;20192;-77
2022/03/04 01:51:30;;;;;;;17.27;12.50;;;;;;;;;;5049156;28;20193;-76
2022/03/04 01:53:57;;;;;;;17.35;11.90;;;;;;;;;;5050360;28;20186;-79
2022/03/04 01:56:25;;;;;;;17.23;12.20;;;;;;;;;;5069182;28;20185;-80
2022/03/04 01:58:52;;;;;;;19.67;12.10;;;;;;;;;;5057598;28;20202;-80
2022/03/04 02:01:19;;;;;;;19.25;12.48;;;;;;;;;;5066203;28;20449;-78
2022/03/04 02:03:48;;;;;;;16.67;12.38;;;;;;;;;;5066881;28;20295;-79
2022/03/04 02:06:15;;;;;;;18.50;11.20;;;;;;;;;;5052638;28;20229;-78
2022/03/04 02:08:42;;;;;;;19.58;11.73;;;;;;;;;;5070208;28;20205;-75
2022/03/04 02:11:10;;;;;;;19.65;11.57;;;;;;;;;;5067955;28;20190;-77
2022/03/04 02:13:39;;;;;;;15.40;9.88;;;;;;;;;;5060911;28;20605;-79
2022/03/04 02:16:08;;;;;;;14.23;9.80;;;;;;;;;;5055318;28;20258;-77
2022/03/04 02:18:36;;;;;;;21.63;12.40;;;;;;;;;;5069619;28;20194;-78
2022/03/04 02:21:06;;;;;;;17.23;12.20;;;;;;;;;;5071879;28;20201;-77
2022/03/04 02:23:34;;;;;;;18.35;11.55;;;;;;;;;;5065579;28;20585;-78
2022/03/04 02:26:01;;;;;;;15.35;11.63;;;;;;;;;;5063251;28;20230;-78
2022/03/04 02:28:28;;;;;;;19.90;12.25;;;;;;;;;;5063082;28;20187;-76
2022/03/04 02:30:55;;;;;;;15.80;11.45;;;;;;;;;;5065463;28;20220;-80
2022/03/04 02:33:23;;;;;;;17.75;12.15;;;;;;;;;;5071300;28;20192;-78
2022/03/04 02:35:50;;;;;;;15.90;11.02;;;;;;;;;;5066024;28;20214;-78
2022/03/04 02:38:17;;;;;;;16.38;12.20;;;;;;;;;;5053858;28;20663;-77
2022/03/04 02:40:46;;;;;;;20.15;12.05;;;;;;;;;;5059877;28;20197;-77
2022/03/04 02:43:13;;;;;;;26.67;12.43;;;;;;;;;;5063201;28;20199;-78
2022/03/04 02:45:40;;;;;;;16.80;12.13;;;;;;;;;;5063836;28;20213;-79
2022/03/04 02:48:07;;;;;;;18.42;11.70;;;;;;;;;;5070214;28;20190;-77
2022/03/04 02:50:34;;;;;;;19.25;12.25;;;;;;;;;;5068086;28;20195;-80
2022/03/04 02:53:01;;;;;;;18.52;12.70;;;;;;;;;;5058401;28;20205;-79
2022/03/04 02:55:29;;;;;;;15.50;11.57;;;;;;;;;;5065908;28;20681;-77
2022/03/04 02:57:57;;;;;;;17.23;12.40;;;;;;;;;;5072048;28;20651;-77
2022/03/04 03:00:24;;;;;;;16.35;11.48;;;;;;;;;;5062651;28;20198;-79
2022/03/04 03:02:51;;;;;;;23.17;13.32;;;;;;;;;;5067066;28;20661;-81
2022/03/04 03:05:19;;;;;;;18.00;12.23;;;;;;;;;;5067619;28;20221;-79
2022/03/04 03:07:46;;;;;;;15.95;12.23;;;;;;;;;;5067553;28;20250;-76
2022/03/04 03:10:13;;;;;;;18.00;11.82;;;;;;;;;;5065858;28;20202;-77
2022/03/04 03:12:41;;;;;;;18.33;11.80;;;;;;;;;;5055010;28;20201;-77
2022/03/04 03:15:10;;;;;;;17.60;11.70;;;;;;;;;;5055461;28;20209;-80
2022/03/04 03:17:37;;;;;;;18.15;12.50;;;;;;;;;;5051359;28;20187;-79
2022/03/04 03:20:07;;;;;;;19.10;12.60;;;;;;;;;;5063013;28;20237;-78
2022/03/04 03:22:34;;;;;;;21.17;13.02;;;;;;;;;;5067235;28;20202;-79
2022/03/04 03:25:01;;;;;;;18.58;13.25;;;;;;;;;;5064130;28;21262;-79
2022/03/04 03:27:30;;;;;;;17.50;11.38;;;;;;;;;;5068451;28;20565;-78
2022/03/04 03:29:57;;;;;;;18.00;12.45;;;;;;;;;;5058550;28;20660;-78
2022/03/04 03:32:26;;;;;;;17.75;11.77;;;;;;;;;;5052439;28;20203;-78
2022/03/04 03:34:53;;;;;;;21.52;13.15;;;;;;;;;;5051662;28;20305;-76
2022/03/04 03:37:20;;;;;;;18.35;12.07;;;;;;;;;;5055238;28;20202;-81
2022/03/04 03:39:48;;;;;;;16.13;12.40;;;;;;;;;;5067686;28;20681;-78
2022/03/04 03:42:15;;;;;;;22.73;14.52;;;;;;;;;;5067058;28;20197;-77
2022/03/04 03:44:42;;;;;;;21.77;13.38;;;;;;;;;;5067626;28;20228;-80
2022/03/04 03:47:09;;;;;;;18.92;12.15;;;;;;;;;;5054228;28;20191;-77
2022/03/04 03:49:38;;;;;;;20.20;12.18;;;;;;;;;;5051447;28;20272;-78
2022/03/04 03:52:05;;;;;;;21.88;12.85;;;;;;;;;;5066591;28;20198;-78
2022/03/04 03:54:33;;;;;;;19.17;12.13;;;;;;;;;;5049907;28;20210;-81
2022/03/04 03:57:00;;;;;;;19.88;12.70;;;;;;;;;;5053153;28;20213;-80
2022/03/04 03:59:27;;;;;;;19.33;11.82;;;;;;;;;;5062536;28;20212;-77
2022/03/04 04:04:51;;;;;;;20.05;13.27;;;;;;;;;;5015359;28;20232;-78
2022/03/04 04:07:19;;;;;;;20.92;13.18;;;;;;;;;;4998859;28;20206;-78
2022/03/04 04:09:46;;;;;;;18.70;11.45;;;;;;;;;;4987750;28;20315;-77
2022/03/04 04:12:13;;;;;;;16.13;11.73;;;;;;;;;;4989917;28;20201;-80
2022/03/04 04:14:41;;;;;;;25.00;13.10;;;;;;;;;;4999505;28;20223;-78
2022/03/04 04:17:08;;;;;;;20.30;12.55;;;;;;;;;;4994445;28;20197;-77
2022/03/04 04:19:35;;;;;;;18.10;12.15;;;;;;;;;;4996478;28;20199;-80
2022/03/04 04:22:04;;;;;;;19.30;12.10;;;;;;;;;;5010998;28;20204;-79
2022/03/04 04:24:33;;;;;;;22.40;13.10;;;;;;;;;;4990834;28;1238407;-78
2022/03/04 04:27:00;;;;;;;19.60;13.02;;;;;;;;;;5038351;28;20472;-76
2022/03/04 04:29:27;;;;;;;18.95;11.52;;;;;;;;;;5046847;28;20590;-77
2022/03/04 04:31:54;;;;;;;18.02;12.07;;;;;;;;;;5047665;28;20674;-77
2022/03/04 04:34:22;;;;;;;21.58;14.00;;;;;;;;;;5056062;28;20206;-77
2022/03/04 04:36:49;;;;;;;20.52;12.60;;;;;;;;;;5071584;28;20197;-76
2022/03/04 04:39:17;;;;;;;20.00;12.05;;;;;;;;;;5068693;28;20186;-79
2022/03/04 04:41:45;;;;;;;18.23;12.52;;;;;;;;;;5070550;28;20194;-75
2022/03/04 04:44:12;;;;;;;16.83;11.43;;;;;;;;;;5071571;28;20233;-77
2022/03/04 04:46:39;;;;;;;17.48;12.05;;;;;;;;;;5067021;28;20194;-78
2022/03/04 04:49:06;;;;;;;20.80;13.05;;;;;;;;;;5083185;28;20205;-77
2022/03/04 04:51:33;;;;;;;18.52;11.82;;;;;;;;;;5091767;28;20196;-79
2022/03/04 04:54:01;;;;;;;20.35;13.05;;;;;;;;;;5072039;28;20198;-77
2022/03/04 04:56:29;;;;;;;18.95;12.60;;;;;;;;;;5065256;28;20198;-78
2022/03/04 04:58:56;;;;;;;29.92;12.25;;;;;;;;;;5067036;28;20186;-76
2022/03/04 05:01:23;;;;;;;23.90;11.85;;;;;;;;;;5066623;28;20200;-77
2022/03/04 05:03:51;;;;;;;24.48;12.20;;;;;;;;;;5069589;28;20277;-78
2022/03/04 05:06:18;;;;;;;19.70;12.00;;;;;;;;;;5069801;28;20248;-79
2022/03/04 05:08:45;;;;;;;18.80;12.02;;;;;;;;;;5070599;28;20559;-79
2022/03/04 05:11:12;;;;;;;19.52;11.27;;;;;;;;;;5072119;28;20578;-77
2022/03/04 05:13:41;;;;;;;16.85;11.48;;;;;;;;;;5069064;28;20652;-79
2022/03/04 05:16:08;;;;;;;19.35;13.15;;;;;;;;;;5066779;28;20214;-78
2022/03/04 05:18:35;;;;;;;17.67;11.43;;;;;;;;;;5062906;28;20195;-77
2022/03/04 05:21:03;;;;;;;17.42;11.10;;;;;;;;;;5059654;28;20201;-81
2022/03/04 05:26:11;;;;;;;18.55;12.50;;;;;;;;;;5062296;28;20260;-79
2022/03/04 05:28:38;;;;;;;16.35;11.55;;;;;;;;;;5054392;28;20656;-77
2022/03/04 05:31:07;;;;;;;17.90;11.98;;;;;;;;;;5054910;28;20225;-77
2022/03/04 05:33:34;;;;;;;19.75;13.80;;;;;;;;;;5063113;28;20194;-76
2022/03/04 05:36:01;;;;;;;22.08;13.88;;;;;;;;;;5065859;28;20221;-76
2022/03/04 05:38:29;;;;;;;19.83;13.43;;;;;;;;;;5068930;28;20212;-76
2022/03/04 05:40:56;;;;;;;21.20;12.10;;;;;;;;;;5054300;28;20194;-78
2022/03/04 05:43:23;;;;;;;18.38;12.05;;;;;;;;;;5058013;28;20212;-83
2022/03/04 05:45:51;;;;;;;18.70;11.60;;;;;;;;;;5066882;28;20225;-81
2022/03/04 05:48:19;;;;;;;22.20;13.77;;;;;;;;;;5065704;28;20198;-81
2022/03/04 05:50:47;;;;;;;22.02;13.77;;;;;;;;;;5055184;28;20197;-81
2022/03/04 05:53:14;;;;;;;21.13;13.68;;;;;;;;;;5058253;28;20209;-82
2022/03/04 05:55:41;;;;;;;21.23;14.38;;;;;;;;;;5066242;28;20213;-81
2022/03/04 05:58:08;;;;;;;20.10;13.63;;;;;;;;;;5068308;28;20205;-81
2022/03/04 06:00:35;;;;;;;17.90;12.60;;;;;;;;;;5066958;28;20608;-83
2022/03/04 06:03:03;;;;;;;20.15;13.02;;;;;;;;;;5068627;28;20205;-80
2022/03/04 06:05:31;;;;;;;21.10;14.32;;;;;;;;;;5052799;28;20218;-80
2022/03/04 06:07:58;;;;;;;21.63;14.50;;;;;;;;;;5060422;28;20197;-78
2022/03/04 06:10:25;;;;;;;22.17;13.50;;;;;;;;;;5052460;28;20229;-83
2022/03/04 06:12:52;;;;;;;20.73;12.90;;;;;;;;;;5057283;28;20202;-78
2022/03/04 06:15:20;;;;;;;22.20;14.23;;;;;;;;;;5051465;28;20225;-82
2022/03/04 06:17:48;;;;;;;23.73;13.65;;;;;;;;;;5064680;28;20198;-77
2022/03/04 06:20:15;;;;;;;20.33;13.65;;;;;;;;;;5065891;28;20495;-78
2022/03/04 06:22:43;;;;;;;23.35;13.15;;;;;;;;;;5066515;28;20196;-78
2022/03/04 06:25:11;;;;;;;24.88;14.15;;;;;;;;;;5065108;28;20238;-76
2022/03/04 06:27:39;;;;;;;21.42;12.93;;;;;;;;;;5050582;28;20572;-77
2022/03/04 06:30:06;;;;;;;20.45;13.57;;;;;;;;;;5048427;28;20285;-78
2022/03/04 06:32:34;;;;;;;20.90;13.25;;;;;;;;;;5050442;28;20619;-78
2022/03/04 06:35:01;;;;;;;20.00;13.18;;;;;;;;;;5066558;28;20208;-77
2022/03/04 06:37:28;;;;;;;26.67;15.48;;;;;;;;;;5067800;28;20190;-77
2022/03/04 06:39:56;;;;;;;24.55;13.52;;;;;;;;;;5048113;28;20203;-76
2022/03/04 06:42:23;;;;;;;20.45;14.48;;;;;;;;;;5047956;28;20186;-77
2022/03/04 06:44:50;;;;;;;26.10;14.43;;;;;;;;;;5049188;28;20227;-77
2022/03/04 06:47:18;;;;;;;23.10;14.60;;;;;;;;;;5061160;28;20205;-75
2022/03/04 06:49:45;;;;;;;30.88;14.13;;;;;;;;;;5052789;28;20222;-76
2022/03/04 06:52:12;;;;;;;27.38;16.17;;;;;;;;;;5063902;28;20804;-76
2022/03/04 06:54:39;;;;;;;24.92;14.30;;;;;;;;;;5066485;28;20214;-77
2022/03/04 06:57:08;;;;;;;23.90;14.25;;;;;;;;;;5065838;28;20685;-77
2022/03/04 06:59:35;;;;;;;20.92;13.25;;;;;;;;;;5069638;28;20202;-76
2022/03/04 07:02:03;;;;;;;20.65;14.00;;;;;;;;;;5053678;28;20203;-78
2022/03/04 07:04:31;;;;;;;25.77;15.65;;;;;;;;;;5059883;28;20226;-78
2022/03/04 07:06:58;;;;;;;22.00;14.98;;;;;;;;;;5059644;28;20194;-76
2022/03/04 07:09:25;;;;;;;24.33;15.52;;;;;;;;;;5064158;28;20297;-75
2022/03/04 07:11:54;;;;;;;23.55;14.88;;;;;;;;;;5066347;28;20205;-80
2022/03/04 07:14:22;;;;;;;21.90;15.00;;;;;;;;;;5057202;28;20217;-77
2022/03/04 07:16:49;;;;;;;25.50;13.98;;;;;;;;;;5060223;28;20213;-78
2022/03/04 07:19:16;;;;;;;22.55;14.45;;;;;;;;;;5067860;28;20198;-76
2022/03/04 07:21:43;;;;;;;21.85;13.60;;;;;;;;;;5054693;28;20203;-77
2022/03/04 07:24:10;;;;;;;24.88;14.63;;;;;;;;;;5065082;28;20277;-77
2022/03/04 07:26:38;;;;;;;21.65;12.90;;;;;;;;;;5067948;28;20210;-76
2022/03/04 07:29:05;;;;;;;22.85;13.90;;;;;;;;;;5067859;28;20194;-79
2022/03/04 07:31:34;;;;;;;20.38;13.65;;;;;;;;;;5071595;28;20216;-76
2022/03/04 07:34:01;;;;;;;21.70;14.65;;;;;;;;;;5060506;28;20641;-78
2022/03/04 07:36:28;;;;;;;21.05;15.02;;;;;;;;;;5052872;28;20191;-75
2022/03/04 07:38:57;;;;;;;21.05;14.75;;;;;;;;;;5052904;28;20199;-75
2022/03/04 07:41:24;;;;;;;23.15;14.38;;;;;;;;;;5054411;28;20198;-77
2022/03/04 07:43:51;;;;;;;20.40;14.18;;;;;;;;;;5057833;28;20201;-76
2022/03/04 07:46:19;;;;;;;20.73;13.95;;;;;;;;;;5073646;28;20218;-78
2022/03/04 07:48:47;;;;;;;23.92;14.73;;;;;;;;;;5071747;28;20233;-75
2022/03/04 07:51:14;;;;;;;20.65;14.65;;;;;;;;;;5068393;28;20240;-77
2022/03/04 07:53:42;;;;;;;23.63;13.02;;;;;;;;;;5059156;28;20203;-76
2022/03/04 07:56:10;;;;;;;17.45;13.00;;;;;;;;;;5066198;28;20215;-79
2022/03/04 07:58:37;;;;;;;28.02;15.05;;;;;;;;;;5053201;28;20199;-76
2022/03/04 08:01:04;;;;;;;21.20;13.20;;;;;;;;;;5066437;28;20719;-76
2022/03/04 08:03:31;;;;;;;25.30;15.07;;;;;;;;;;5064108;28;20252;-76
2022/03/04 08:06:00;;;;;;;22.70;13.45;;;;;;;;;;5058542;28;20230;-77
2022/03/04 08:08:27;;;;;;;21.80;14.18;;;;;;;;;;5060463;28;20198;-76
2022/03/04 08:10:54;;;;;;;23.35;15.10;;;;;;;;;;5064975;28;20205;-75
2022/03/04 08:13:21;;;;;;;23.15;14.60;;;;;;;;;;5064707;28;20202;-75
2022/03/04 08:15:49;;;;;;;22.73;15.02;;;;;;;;;;5065665;28;20206;-75
2022/03/04 08:18:16;;;;;;;19.90;13.55;;;;;;;;;;5055362;28;20687;-77
2022/03/04 08:20:43;;;;;;;22.80;15.05;;;;;;;;;;5062602;28;20191;-77
2022/03/04 08:23:12;;;;;;;21.63;14.52;;;;;;;;;;5054094;28;20194;-76
2022/03/04 08:25:39;;;;;;;18.80;14.45;;;;;;;;;;5052193;28;20261;-77
2022/03/04 08:28:07;;;;;;;20.38;15.90;;;;;;;;;;5060439;28;20510;-77
2022/03/04 08:30:34;;;;;;;24.05;16.15;;;;;;;;;;5066636;28;20525;-77
2022/03/04 08:33:01;;;;;;;22.45;14.55;;;;;;;;;;5067717;28;20636;-75
2022/03/04 08:35:29;;;;;;;21.48;15.15;;;;;;;;;;5056936;28;20422;-77
2022/03/04 08:37:56;;;;;;;23.20;15.68;;;;;;;;;;5049938;28;20199;-80
2022/03/04 08:40:24;;;;;;;21.50;15.40;;;;;;;;;;5051634;28;20195;-78
2022/03/04 08:42:52;;;;;;;23.63;15.75;;;;;;;;;;5051348;28;20198;-75
2022/03/04 08:45:19;;;;;;;23.73;16.75;;;;;;;;;;5055587;28;20293;-79
2022/03/04 08:47:47;;;;;;;23.40;15.90;;;;;;;;;;5067545;28;20209;-77
2022/03/04 08:50:14;;;;;;;24.20;17.83;;;;;;;;;;5059367;28;20194;-78
2022/03/04 08:52:41;;;;;;;23.15;15.38;;;;;;;;;;5059729;28;20198;-78
2022/03/04 08:55:14;;;;;;;27.42;16.70;;;;;;;;;;5053223;28;20222;-76
2022/03/04 08:57:42;;;;;;;22.35;15.95;;;;;;;;;;5063504;28;20585;-79
2022/03/04 09:00:10;;;;;;;25.52;16.63;;;;;;;;;;5053646;28;20191;-77
2022/03/04 09:02:37;;;;;;;21.95;15.85;;;;;;;;;;5050829;28;20199;-76
2022/03/04 09:05:05;;;;;;;25.77;16.30;;;;;;;;;;5065730;28;20216;-77
2022/03/04 09:07:32;;;;;;;21.80;15.75;;;;;;;;;;5061864;28;20225;-79
2022/03/04 09:10:00;;;;;;;24.58;17.08;;;;;;;;;;5048704;28;20238;-76
2022/03/04 09:12:27;;;;;;;27.02;18.25;;;;;;;;;;5050426;28;20230;-77
2022/03/04 09:14:55;;;;;;;26.08;16.63;;;;;;;;;;5049830;28;20210;-76
2022/03/04 09:17:23;;;;;;;23.35;16.25;;;;;;;;;;5056067;28;20481;-80
2022/03/04 09:19:50;;;;;;;25.08;17.27;;;;;;;;;;5063288;28;20204;-80
2022/03/04 09:22:17;;;;;;;26.02;17.38;;;;;;;;;;5067750;28;20240;-82
2022/03/04 09:24:44;;;;;;;24.13;17.17;;;;;;;;;;5066668;28;20222;-77
2022/03/04 09:27:11;;;;;;;24.00;16.67;;;;;;;;;;5064081;28;20217;-79
2022/03/04 09:29:39;;;;;;;28.63;17.80;;;;;;;;;;5049530;28;20537;-77
2022/03/04 09:32:08;;;;;;;25.88;17.15;;;;;;;;;;5061821;28;20292;-79
2022/03/04 09:34:35;;;;;;;27.30;17.60;;;;;;;;;;5056938;28;20218;-76
2022/03/04 09:37:02;;;;;;;25.98;17.35;;;;;;;;;;5060245;28;20210;-79
2022/03/04 09:39:29;;;;;;;23.08;16.70;;;;;;;;;;5061055;28;20194;-77
2022/03/04 09:41:56;;;;;;;29.23;18.88;;;;;;;;;;5068054;28;20194;-77
2022/03/04 09:44:23;;;;;;;33.13;19.73;;;;;;;;;;5068596;28;20210;-77
2022/03/04 09:46:51;;;;;;;31.67;19.98;;;;;;;;;;5068698;28;20221;-78
2022/03/04 09:49:19;;;;;;;34.20;19.60;;;;;;;;;;5050032;28;20294;-78
2022/03/04 09:51:47;;;;;;;29.88;19.45;;;;;;;;;;5048679;28;20199;-78
2022/03/04 09:54:14;;;;;;;26.33;18.73;;;;;;;;;;5063895;28;20194;-76
2022/03/04 09:56:41;;;;;;;27.10;19.90;;;;;;;;;;5053056;28;20202;-77
2022/03/04 09:59:09;;;;;;;26.95;18.30;;;;;;;;;;5060606;28;20197;-78
2022/03/04 10:01:36;;;;;;;27.70;19.10;;;;;;;;;;5058410;28;20291;-79
2022/03/04 10:04:06;;;;;;;28.05;17.90;;;;;;;;;;5067758;28;20204;-80
2022/03/04 10:06:38;;;;;;;29.67;19.83;;;;;;;;;;5068719;28;20287;-81
2022/03/04 10:09:05;;;;;;;26.13;18.40;;;;;;;;;;5066340;28;20656;-80
2022/03/04 10:11:33;;;;;;;29.67;20.35;;;;;;;;;;5068088;28;20569;-77
2022/03/04 10:14:01;;;;;;;29.60;20.27;;;;;;;;;;5050119;28;20289;-78
2022/03/04 10:16:30;;;;;;;30.88;18.45;;;;;;;;;;5050716;28;20199;-80
2022/03/04 10:19:13;;;;;;;26.85;19.30;;;;;;;;;;5061768;28;20540;-79
2022/03/04 10:21:49;;;;;;;25.73;18.90;;;;;;;;;;5063597;28;20202;-80
2022/03/04 10:24:17;;;;;;;30.67;20.40;;;;;;;;;;5063597;28;20803;-79
2022/03/04 10:26:44;;;;;;;30.52;19.38;;;;;;;;;;5062220;28;20229;-84
2022/03/04 10:29:18;;;;;;;30.52;18.73;;;;;;;;;;5059880;28;20573;-79
2022/03/04 10:32:00;;;;;;;25.90;18.75;;;;;;;;;;5046359;28;20202;-79
2022/03/04 10:34:27;;;;;;;26.88;18.67;;;;;;;;;;5045089;28;20646;-79
2022/03/04 10:36:56;;;;;;;31.48;20.05;;;;;;;;;;5046576;28;20202;-78
2022/03/04 10:39:23;;;;;;;31.67;20.52;;;;;;;;;;5049254;28;20202;-81
2022/03/04 10:41:51;;;;;;;27.38;19.40;;;;;;;;;;5063780;28;20606;-80
2022/03/04 10:44:25;;;;;;;29.05;20.30;;;;;;;;;;5064744;28;20210;-80
2022/03/04 10:46:54;;;;;;;25.60;18.60;;;;;;;;;;5057991;28;20229;-80
2022/03/04 10:49:25;;;;;;;28.70;19.20;;;;;;;;;;5066290;28;20198;-78
2022/03/04 10:51:53;;;;;;;28.63;18.85;;;;;;;;;;5065003;28;20194;-79
2022/03/04 10:54:21;;;;;;;26.88;18.40;;;;;;;;;;5069838;28;20582;-78
2022/03/04 10:56:50;;;;;;;28.50;19.42;;;;;;;;;;5065777;28;20598;-81
2022/03/04 10:59:17;;;;;;;28.45;19.08;;;;;;;;;;5066612;28;20186;-77
2022/03/04 11:01:48;;;;;;;28.95;19.50;;;;;;;;;;5059878;28;20205;-77
2022/03/04 11:04:16;;;;;;;29.77;20.27;;;;;;;;;;5048627;28;20565;-80
2022/03/04 11:06:46;;;;;;;25.30;17.83;;;;;;;;;;5048768;28;20215;-80
2022/03/04 11:09:13;;;;;;;26.65;19.60;;;;;;;;;;5050909;28;20195;-79
2022/03/04 11:11:43;;;;;;;25.25;20.17;;;;;;;;;;5049065;28;20551;-81
2022/03/04 11:14:12;;;;;;;29.25;19.27;;;;;;;;;;5058853;28;20194;-79
2022/03/04 11:16:39;;;;;;;29.08;19.90;;;;;;;;;;5066695;28;20198;-80
2022/03/04 11:19:07;;;;;;;25.10;19.10;;;;;;;;;;5060025;28;20208;-81
2022/03/04 11:21:37;;;;;;;34.83;20.30;;;;;;;;;;5067643;28;20210;-81
2022/03/04 11:24:06;;;;;;;31.90;20.10;;;;;;;;;;5050859;28;20207;-78
2022/03/04 11:26:34;;;;;;;28.67;19.48;;;;;;;;;;5061913;28;20333;-78
2022/03/04 11:29:03;;;;;;;23.45;16.48;;;;;;;;;;5060434;28;20202;-79
2022/03/04 11:31:30;;;;;;;25.90;18.40;;;;;;;;;;5054287;28;20383;-80
2022/03/04 11:34:00;;;;;;;33.42;20.10;;;;;;;;;;5063440;28;20563;-77
2022/03/04 11:36:29;;;;;;;26.57;18.00;;;;;;;;;;5067473;28;20239;-80
2022/03/04 11:38:58;;;;;;;25.40;18.20;;;;;;;;;;5064351;28;20555;-80
2022/03/04 11:41:26;;;;;;;28.73;19.17;;;;;;;;;;5049712;28;20452;-80
2022/03/04 11:43:54;;;;;;;27.80;19.30;;;;;;;;;;5048576;28;20456;-82
2022/03/04 11:46:23;;;;;;;25.20;18.27;;;;;;;;;;5048641;28;20480;-79
2022/03/04 11:49:19;;;;;;;24.13;17.30;;;;;;;;;;5064570;28;20487;-78
2022/03/04 11:52:11;;;;;;;26.47;18.17;;;;;;;;;;5058091;28;20450;-79
2022/03/04 11:54:39;;;;;;;28.17;18.17;;;;;;;;;;5053535;28;20469;-79
2022/03/04 11:57:16;;;;;;;26.17;18.83;;;;;;;;;;5065104;28;20451;-81
2022/03/04 11:59:49;;;;;;;28.80;19.20;;;;;;;;;;5065690;28;20439;-77
2022/03/04 12:02:20;;;;;;;25.97;17.43;;;;;;;;;;5051640;28;20459;-79
2022/03/04 12:04:49;;;;;;;32.30;18.40;;;;;;;;;;5061706;28;20461;-78
2022/03/04 12:07:17;;;;;;;25.63;18.10;;;;;;;;;;5064489;28;20468;-80
2022/03/04 12:09:49;;;;;;;27.13;19.27;;;;;;;;;;5069467;28;20947;-79
2022/03/04 12:12:18;;;;;;;25.70;17.50;;;;;;;;;;5066817;28;20517;-78
2022/03/04 12:14:47;;;;;;;28.90;18.23;;;;;;;;;;5058479;28;20505;-78
2022/03/04 12:17:15;;;;;;;23.77;17.27;;;;;;;;;;5058640;28;20546;-79
2022/03/04 12:19:43;;;;;;;27.23;17.77;;;;;;;;;;5066220;28;20930;-83
2022/03/04 12:22:13;;;;;;;29.50;18.20;;;;;;;;;;5065215;28;20949;-76
2022/03/04 12:24:52;;;;;;;26.07;16.57;;;;;;;;;;5054192;28;20495;-88
2022/03/04 12:27:34;;;;;;;25.30;16.97;;;;;;;;;;5066516;28;20476;-81
2022/03/04 12:30:15;;;;;;;22.63;16.40;;;;;;;;;;5066121;28;20442;-78
2022/03/04 12:32:46;;;;;;;20.53;15.40;;;;;;;;;;5060296;28;20437;-78
2022/03/04 12:35:16;;;;;;;25.57;17.07;;;;;;;;;;5070374;28;20476;-77
2022/03/04 12:37:43;;;;;;;22.23;15.87;;;;;;;;;;5065803;28;20447;-77
2022/03/04 12:40:12;;;;;;;25.70;17.27;;;;;;;;;;5067405;28;20480;-77
2022/03/04 12:42:39;;;;;;;20.40;14.30;;;;;;;;;;5071316;28;20447;-79
2022/03/04 12:45:09;;;;;;;24.60;15.30;;;;;;;;;;5064451;28;20517;-77
2022/03/04 12:47:36;;;;;;;19.23;14.60;;;;;;;;;;5050624;28;20473;-78
2022/03/04 12:50:04;;;;;;;24.57;16.83;;;;;;;;;;5053966;28;20857;-78
2022/03/04 12:52:32;;;;;;;21.87;16.50;;;;;;;;;;5056125;28;20953;-78
2022/03/04 12:55:03;;;;;;;20.30;14.90;;;;;;;;;;5053234;28;20472;-79
2022/03/04 12:57:30;;;;;;;19.83;13.00;;;;;;;;;;5051442;28;20441;-78
2022/03/04 12:59:58;;;;;;;23.50;13.67;;;;;;;;;;5058950;28;20447;-77
2022/03/04 13:02:25;;;;;;;17.60;13.47;;;;;;;;;;5063963;28;20488;-80
2022/03/04 13:04:57;;;;;;;21.20;14.13;;;;;;;;;;5064204;28;20472;-79
2022/03/04 13:07:25;;;;;;;18.53;12.40;;;;;;;;;;5051219;28;20476;-78
2022/03/04 13:09:55;;;;;;;17.73;11.90;;;;;;;;;;5064955;28;20467;-79
2022/03/04 13:12:22;;;;;;;19.93;13.40;;;;;;;;;;5071040;28;20444;-77
2022/03/04 13:14:50;;;;;;;17.73;13.03;;;;;;;;;;5057387;28;21231;-75
2022/03/04 13:17:17;;;;;;;18.87;13.17;;;;;;;;;;5069197;28;20491;-77
2022/03/04 13:19:45;;;;;;;22.10;15.33;;;;;;;;;;5056777;28;20548;-79
2022/03/04 13:22:13;;;;;;;20.67;14.50;;;;;;;;;;5064628;28;20464;-77
2022/03/04 13:24:41;;;;;;;20.63;14.60;;;;;;;;;;5063015;28;20837;-76
2022/03/04 13:27:10;;;;;;;22.50;14.17;;;;;;;;;;5063490;28;20479;-78
2022/03/04 13:29:39;;;;;;;20.13;14.10;;;;;;;;;;5052924;28;20457;-77
2022/03/04 13:32:07;;;;;;;19.93;14.83;;;;;;;;;;5048410;28;20460;-79
2022/03/04 13:34:35;;;;;;;20.57;13.70;;;;;;;;;;5041519;28;20469;-79
2022/03/04 13:37:08;;;;;;;25.20;14.30;;;;;;;;;;5064176;28;20460;-80
2022/03/04 13:39:36;;;;;;;30.47;14.80;;;;;;;;;;5058279;28;20457;-77
2022/03/04 13:42:18;;;;;;;19.93;14.40;;;;;;;;;;5066290;28;20925;-77
2022/03/04 13:44:51;;;;;;;22.63;14.23;;;;;;;;;;5066094;28;20464;-78
2022/03/04 13:47:28;;;;;;;22.93;14.87;;;;;;;;;;5048293;28;20477;-78
2022/03/04 13:49:56;;;;;;;25.10;14.70;;;;;;;;;;5051737;28;20697;-82
2022/03/04 13:52:23;;;;;;;17.67;12.40;;;;;;;;;;5053451;28;20438;-79
2022/03/04 13:54:51;;;;;;;21.87;14.57;;;;;;;;;;5064762;28;20484;-76
2022/03/04 13:57:27;;;;;;;21.13;14.77;;;;;;;;;;5051920;28;20453;-81
2022/03/04 13:59:55;;;;;;;19.27;14.67;;;;;;;;;;5057771;28;20443;-77
2022/03/04 14:02:22;;;;;;;20.37;14.67;;;;;;;;;;5063791;28;20440;-80
2022/03/04 14:04:53;;;;;;;20.43;13.70;;;;;;;;;;5066637;28;20517;-78
2022/03/04 14:07:21;;;;;;;21.33;15.40;;;;;;;;;;5057158;28;20477;-79
2022/03/04 14:09:51;;;;;;;20.40;14.63;;;;;;;;;;5058393;28;20472;-81
2022/03/04 14:12:18;;;;;;;17.40;13.43;;;;;;;;;;5054830;28;20451;-80
2022/03/04 14:14:47;;;;;;;24.63;13.80;;;;;;;;;;5051942;28;20461;-79
2022/03/04 14:17:15;;;;;;;18.60;13.63;;;;;;;;;;5055730;28;20468;-78
2022/03/04 14:19:42;;;;;;;19.83;14.00;;;;;;;;;;5058073;28;20963;-79
2022/03/04 14:22:09;;;;;;;18.83;13.60;;;;;;;;;;5068894;28;20452;-80
2022/03/04 14:24:37;;;;;;;22.33;15.27;;;;;;;;;;5065651;28;20479;-80
2022/03/04 14:27:04;;;;;;;23.80;15.87;;;;;;;;;;5068027;28;20829;-82